Latest Weather Observations for Mangalore

IDV60801

Issued at 2:31 pm EST Monday 30 May 2016 (issued every 30 minutes, with the page automatically refreshed every 10 minutes)

About weather observations | Map of weather stations | Latest weather observations for VIC | Other Formats
Station Details ID: 088109 Name: MANGALORE AIRPORT Lat: -36.89 Lon: 145.19 Height: 140.8 m
Data from the previous 72 hours. | See also: Recent months at Mangalore
Date/Time
EST
Temp
°C
App
Temp
°C
Dew
Point
Rel
Hum
%
Delta-T
°C
Wind Press
QNH
hPa
Press
MSL
hPa
Rain
since 9 am
mm
Dir
 
Spd
km/h
Gust
km/h
Spd
kts
Gust
kts
30/02:30pm 12.2 9.0 3.2 54 4.0 E 9 13 5 7 1025.7 1025.9 0.0
30/02:00pm 12.0 8.4 3.0 54 4.0 NNE 11 19 6 10 1025.8 1026.0 0.0
30/01:30pm 12.1 8.5 3.1 54 4.0 N 11 19 6 10 1026.0 1026.2 0.0
30/01:00pm 12.6 9.7 4.6 58 3.7 N 9 15 5 8 1026.2 1026.3 0.0
30/12:30pm 11.9 9.2 3.9 58 3.6 NNE 7 13 4 7 1026.3 1026.4 0.0
30/12:00pm 10.9 8.4 3.5 60 3.3 SW 6 9 3 5 1026.6 1026.7 0.0
30/11:30am 11.1 8.6 3.9 61 3.2 WSW 6 7 3 4 1027.1 1027.2 0.0
30/11:00am 9.7 8.2 4.9 72 2.2 WSW 2 7 1 4 1027.4 1027.5 0.0
30/10:30am 8.1 5.8 5.6 84 1.1 WSW 7 9 4 5 1027.6 1027.7 0.0
30/10:00am 6.9 4.3 6.0 94 0.4 WSW 9 11 5 6 1027.6 1027.7 0.0
30/09:30am 5.5 3.1 5.4 99 0.0 SW 7 7 4 4 1027.3 1027.4 0.0
30/09:00am 4.0 1.5 3.9 99 0.0 SW 6 6 3 3 1027.2 1027.3 0.0
30/08:30am 2.5 -0.2 2.4 99 0.0 SW 6 7 3 4 1026.9 1027.0 0.0
30/08:00am 1.2 -1.8 1.1 99 0.0 SW 6 7 3 4 1026.7 1026.8 0.0
30/07:30am 1.0 -2.0 0.9 99 0.0 SW 6 6 3 3 1026.4 1026.5 0.0
30/07:00am 1.0 -0.8 0.9 99 0.0 CALM 0 0 0 0 1026.2 1026.3 0.0
30/06:30am 1.0 -0.8 0.9 99 0.0 CALM 0 4 0 2 1025.8 1026.0 0.0
30/06:00am 1.2 -1.4 1.1 99 0.0 SW 4 6 2 3 1025.4 1025.6 0.0
30/05:30am 1.0 -0.8 0.9 99 0.0 CALM 0 0 0 0 1025.0 1025.1 0.0
30/05:00am 1.9 -0.6 1.8 99 0.0 SW 4 7 2 4 1024.8 1024.9 0.0
30/04:30am 2.0 -0.8 1.9 99 0.0 SW 6 7 3 4 1024.5 1024.6 0.0
30/04:00am 1.6 -1.3 1.5 99 0.0 SW 6 9 3 5 1024.4 1024.5 0.0
30/03:30am 1.3 -1.6 1.2 99 0.0 SW 6 7 3 4 1024.3 1024.4 0.0
30/03:00am 1.6 -1.5 1.5 99 0.0 SW 7 9 4 5 1024.3 1024.4 0.0
30/02:30am 1.4 -1.1 1.3 99 0.0 SW 4 9 2 5 1024.0 1024.1 0.0
30/02:00am 2.5 -0.4 2.4 99 0.0 WSW 7 9 4 5 1024.1 1024.2 0.0
30/01:30am 2.5 -0.4 2.4 99 0.0 WSW 7 11 4 6 1023.9 1024.0 0.0
30/01:00am 2.5 -0.4 2.4 99 0.0 WSW 7 9 4 5 1023.9 1024.0 0.0
30/12:30am 2.5 -0.2 2.4 99 0.0 WSW 6 7 3 4 1023.9 1024.0 0.0
30/12:00am 2.4 -0.9 2.3 99 0.0 WSW 9 9 5 5 1023.9 1024.0 0.0
 
Date/Time
EST
Temp
°C
App
Temp
°C
Dew
Point
Rel
Hum
%
Delta-T
°C
Wind Press
QNH
hPa
Press
MSL
hPa
Rain
since 9 am
mm
Dir
 
Spd
km/h
Gust
km/h
Spd
kts
Gust
kts
29/11:30pm 2.4 -0.6 2.3 99 0.0 WSW 7 9 4 5 1023.7 1023.8 0.0
29/11:00pm 3.0 0.3 2.9 99 0.0 WSW 6 7 3 4 1023.4 1023.5 0.0
29/10:30pm 2.8 0.5 2.5 98 0.1 WSW 4 6 2 3 1023.3 1023.4 0.0
29/10:00pm 3.4 0.6 3.0 97 0.2 WSW 7 7 4 4 1023.3 1023.4 0.0
29/09:30pm 3.9 2.5 3.3 96 0.2 CALM 0 0 0 0 1023.1 1023.2 0.0
29/09:00pm 3.3 0.5 2.3 93 0.4 WSW 6 7 3 4 1023.2 1023.3 0.0
29/08:30pm 3.5 0.8 2.5 93 0.4 WSW 6 7 3 4 1023.1 1023.2 0.0
29/08:00pm 4.5 1.9 3.0 90 0.6 WSW 6 9 3 5 1022.8 1022.9 0.0
29/07:30pm 5.6 2.8 3.3 85 1.0 WSW 7 9 4 5 1022.5 1022.6 0.0
29/07:00pm 5.8 4.4 3.6 86 0.9 CALM 0 0 0 0 1022.1 1022.2 0.0
29/06:30pm 5.7 2.8 2.5 80 1.3 WSW 7 9 4 5 1021.8 1021.9 0.0
29/06:00pm 8.2 5.5 3.7 73 1.9 WSW 7 9 4 5 1021.4 1021.5 0.0
29/05:30pm 8.5 5.7 3.4 70 2.2 WSW 7 7 4 4 1021.2 1021.3 0.0
29/05:00pm 10.1 7.0 3.8 65 2.8 WSW 9 9 5 5 1021.1 1021.2 0.0
29/04:30pm 11.5 7.7 3.8 59 3.5 WSW 13 15 7 8 1021.0 1021.1 0.0
29/04:00pm 11.8 8.9 2.5 53 4.0 S 7 13 4 7 1020.8 1020.9 0.0
29/03:30pm 11.7 7.7 3.0 55 3.8 S 13 20 7 11 1020.8 1020.9 0.0
29/03:00pm 11.4 7.3 2.4 54 3.9 SSW 13 20 7 11 1020.8 1020.9 0.0
29/02:30pm 11.9 8.6 2.6 53 4.1 SSW 9 13 5 7 1020.7 1020.8 0.0
29/02:00pm 12.3 8.0 3.3 54 4.0 SSW 15 22 8 12 1020.6 1020.7 0.0
29/01:30pm 12.2 7.5 2.9 53 4.1 SW 17 24 9 13 1020.6 1020.7 0.0
29/01:00pm 12.5 7.9 3.7 55 4.0 WSW 17 24 9 13 1020.8 1020.9 0.0
29/12:30pm 11.7 6.3 2.7 54 3.9 SW 20 28 11 15 1020.9 1021.0 0.0
29/12:00pm 12.1 7.8 3.1 54 4.0 SW 15 20 8 11 1020.9 1021.0 0.0
29/11:30am 11.7 8.1 3.2 56 3.8 SW 11 19 6 10 1021.1 1021.2 0.0
29/11:00am 10.6 7.3 4.3 65 2.8 SW 11 15 6 8 1021.2 1021.3 0.0
29/10:30am 9.2 7.2 4.2 71 2.2 SE 4 7 2 4 1021.4 1021.5 0.0
29/10:00am 8.1 5.7 4.5 78 1.6 SE 6 7 3 4 1021.1 1021.2 0.0
29/09:30am 6.8 4.7 5.9 94 0.4 SE 6 7 3 4 1020.7 1020.8 0.0
29/09:00am 5.2 3.0 5.1 99 0.0 SE 6 9 3 5 1020.6 1020.7 0.0
29/08:30am 3.5 2.1 3.4 99 0.0 CALM 0 0 0 0 1020.0 1020.1 0.0
29/08:00am 1.4 -0.4 1.3 99 0.0 CALM 0 0 0 0 1019.8 1019.9 0.0
29/07:30am 0.5 -1.4 0.4 99 0.0 CALM 0 0 0 0 1019.5 1019.6 0.0
29/07:16am 0.8 -1.5 0.7 99 0.0 SE 2 6 1 3 1019.2 1019.2 0.0
29/07:00am 0.9 -1.7 0.8 99 0.0 SE 4 11 2 6 1019.1 1019.1 0.0
29/06:54am 1.2 -0.6 1.1 99 0.0 CALM 0 0 0 0 1019.0 1019.0 0.0
29/06:30am 2.3 0.7 2.2 99 0.0 CALM 0 0 0 0 1018.9 1018.9 0.0
29/06:28am 2.1 0.4 2.0 99 0.0 CALM 0 0 0 0 1018.9 1018.9 0.0
29/06:09am 2.1 0.4 2.0 99 0.0 CALM 0 0 0 0 1018.8 1018.8 0.0
29/06:00am 1.7 -0.8 1.6 99 0.0 SE 4 7 2 4 1018.8 1018.8 0.0
29/05:30am 2.6 1.0 2.5 99 0.0 CALM 0 0 0 0 1018.4 1018.5 0.0
29/05:00am 3.7 2.3 3.6 99 0.0 CALM 0 0 0 0 1018.3 1018.4 0.0
29/04:30am 4.3 3.0 4.2 99 0.0 CALM 0 0 0 0 1018.0 1018.1 0.0
29/04:00am 4.0 2.7 3.9 99 0.0 CALM 0 0 0 0 1018.0 1018.1 0.0
29/03:30am 4.1 1.1 4.0 99 0.0 SSE 9 17 5 9 1017.9 1018.0 0.0
29/03:00am 3.0 1.5 2.9 99 0.0 CALM 0 0 0 0 1017.9 1018.0 0.0
29/02:30am 2.7 0.7 2.4 98 0.1 SW 2 6 1 3 1017.9 1018.0 0.0
29/02:00am 2.4 0.0 2.0 97 0.2 SW 4 6 2 3 1017.6 1017.7 0.0
29/01:30am 2.9 -0.1 2.3 96 0.2 SW 7 9 4 5 1017.4 1017.5 0.0
29/01:00am 4.0 1.2 3.1 94 0.4 SW 7 9 4 5 1017.3 1017.4 0.0
29/12:30am 5.2 2.2 4.2 93 0.4 SW 9 9 5 5 1017.2 1017.3 0.0
29/12:00am 5.5 2.9 4.3 92 0.5 SW 7 9 4 5 1017.2 1017.3 0.0
 
Date/Time
EST
Temp
°C
App
Temp
°C
Dew
Point
Rel
Hum
%
Delta-T
°C
Wind Press
QNH
hPa
Press
MSL
hPa
Rain
since 9 am
mm
Dir
 
Spd
km/h
Gust
km/h
Spd
kts
Gust
kts
28/11:30pm 5.2 2.6 3.2 87 0.8 SW 6 7 3 4 1017.0 1017.1 0.0
28/11:00pm 6.8 3.8 4.1 83 1.2 SW 9 9 5 5 1017.1 1017.2 0.0
28/10:30pm 6.8 4.4 4.5 85 1.0 SW 6 9 3 5 1016.9 1017.0 0.0
28/10:00pm 7.2 4.7 5.0 86 1.0 SW 7 9 4 5 1016.7 1016.8 0.0
28/09:30pm 7.6 4.7 4.9 83 1.2 SW 9 13 5 7 1016.7 1016.8 0.0
28/09:00pm 8.3 5.1 4.9 79 1.5 SW 11 15 6 8 1016.3 1016.4 0.0
28/08:30pm 8.4 5.2 5.0 79 1.5 SW 11 15 6 8 1016.2 1016.3 0.0
28/08:00pm 8.7 5.1 5.1 78 1.6 SW 13 17 7 9 1015.8 1015.9 0.0
28/07:30pm 9.9 7.3 5.9 76 1.9 SSW 9 13 5 7 1015.4 1015.5 0.0
28/07:00pm 10.0 7.4 6.0 76 1.9 SW 9 13 5 7 1015.3 1015.4 0.0
28/06:30pm 9.7 6.8 6.4 80 1.5 SW 11 15 6 8 1014.9 1015.0 0.0
28/06:00pm 9.6 7.1 6.7 82 1.4 WSW 9 13 5 7 1014.4 1014.5 0.0
28/05:30pm 10.2 7.2 6.0 75 2.0 SW 11 15 6 8 1013.9 1014.0 0.0
28/05:00pm 10.5 7.1 6.1 74 2.1 SW 13 19 7 10 1013.4 1013.5 0.0
28/04:30pm 11.1 6.5 5.8 70 2.5 SW 19 24 10 13 1013.2 1013.2 0.0
28/04:00pm 12.1 7.4 6.2 67 2.8 SSW 20 33 11 18 1012.7 1012.7 0.0
28/03:30pm 12.1 8.0 6.4 68 2.7 SSW 17 24 9 13 1012.4 1012.4 0.0
28/03:00pm 11.6 6.1 6.1 69 2.6 SSW 24 35 13 19 1012.1 1012.1 0.0
28/02:30pm 12.1 6.3 6.4 68 2.7 SSW 26 39 14 21 1011.7 1011.7 0.0
28/02:00pm 11.7 6.3 6.2 69 2.6 SSW 24 35 13 19 1011.4 1011.4 0.0
28/01:30pm 11.4 6.5 6.9 74 2.2 SW 22 32 12 17 1011.2 1011.3 0.0
28/01:00pm 12.8 7.8 4.5 57 3.8 SSW 20 32 11 17 1010.7 1010.8 0.0
28/12:30pm 13.6 9.9 6.2 61 3.6 S 15 26 8 14 1010.7 1010.8 0.0
28/12:00pm 12.6 9.3 6.4 66 3.0 S 13 19 7 10 1010.8 1010.9 0.0
28/11:30am 11.6 7.9 6.3 70 2.5 SSW 15 20 8 11 1011.0 1011.1 0.0
28/11:00am 11.1 7.8 6.3 72 2.3 SSW 13 19 7 10 1011.1 1011.2 0.0
28/10:30am 8.9 5.8 5.5 79 1.5 SW 11 15 6 8 1010.9 1011.0 0.0
28/10:00am 7.4 5.0 5.2 86 1.0 SSW 7 11 4 6 1010.8 1010.9 0.0
28/09:30am 7.5 4.8 5.5 87 0.9 SSW 9 13 5 7 1010.7 1010.8 0.0
28/09:00am 6.4 3.2 5.2 92 0.5 SW 11 15 6 8 1010.5 1010.6 0.0
28/08:30am 5.8 2.9 4.6 92 0.5 SW 9 13 5 7 1010.2 1010.3 0.0
28/08:00am 5.7 1.6 4.5 92 0.5 SW 15 19 8 10 1009.8 1009.9 0.0
28/07:30am 5.4 1.7 4.4 93 0.4 SSW 13 17 7 9 1009.3 1009.4 0.0
28/07:00am 5.6 1.5 4.6 93 0.4 SSW 15 20 8 11 1008.8 1008.9 0.0
28/06:30am 5.7 2.7 4.3 91 0.6 SW 9 11 5 6 1008.5 1008.6 0.0
28/06:00am 6.2 2.5 4.2 87 0.9 SW 13 17 7 9 1008.2 1008.3 0.0
28/05:30am 7.0 4.1 4.7 85 1.0 SSW 9 11 5 6 1007.8 1007.9 0.0
28/05:00am 7.5 5.0 5.0 84 1.1 S 7 9 4 5 1007.5 1007.6 0.0
28/04:30am 7.9 5.5 5.2 83 1.2 S 7 9 4 5 1007.4 1007.5 0.0
28/04:00am 7.4 5.2 5.5 88 0.9 S 6 7 3 4 1007.3 1007.3 0.0
28/03:30am 7.4 5.2 5.5 88 0.9 S 6 7 3 4 1007.2 1007.2 0.0
28/03:00am 7.8 5.4 5.1 83 1.2 S 7 9 4 5 1007.2 1007.2 0.0
28/02:30am 8.2 5.5 5.8 85 1.1 S 9 11 5 6 1007.1 1007.1 0.0
28/02:00am 7.5 4.9 6.3 92 0.6 SSW 9 11 5 6 1007.2 1007.2 0.0
28/01:30am 7.1 4.6 6.4 95 0.3 S 9 13 5 7 1007.2 1007.2 0.0
28/01:00am 6.9 4.8 6.5 97 0.2 SSE 7 9 4 5 1007.1 1007.1 0.0
28/12:30am 6.8 4.9 6.5 98 0.1 ESE 6 7 3 4 1007.2 1007.2 0.0
28/12:00am 6.8 5.6 6.4 97 0.2 ESE 2 7 1 4 1007.5 1007.6 0.0
 
Date/Time
EST
Temp
°C
App
Temp
°C
Dew
Point
Rel
Hum
%
Delta-T
°C
Wind Press
QNH
hPa
Press
MSL
hPa
Rain
since 9 am
mm
Dir
 
Spd
km/h
Gust
km/h
Spd
kts
Gust
kts
27/11:30pm 6.6 5.7 6.0 96 0.3 CALM 0 0 0 0 1007.7 1007.8 0.0
27/11:00pm 6.5 4.2 5.8 95 0.3 NE 7 9 4 5 1007.6 1007.7 0.0
27/10:30pm 6.3 5.2 4.9 91 0.6 CALM 0 0 0 0 1007.8 1007.9 0.0
27/10:00pm 6.9 5.8 5.2 89 0.8 CALM 0 0 0 0 1007.9 1008.0 0.0
27/09:30pm 6.7 4.1 4.4 85 1.0 NE 7 9 4 5 1007.9 1008.0 0.0
27/09:00pm 7.3 4.5 5.0 85 1.0 ENE 9 13 5 7 1007.7 1007.8 0.0
27/08:30pm 7.6 4.1 5.4 86 1.0 ENE 13 15 7 8 1007.6 1007.7 0.0
27/08:00pm 7.3 3.9 5.8 90 0.7 NE 13 13 7 7 1007.6 1007.7 0.0
27/07:30pm 6.4 3.5 4.9 90 0.7 NNE 9 11 5 6 1007.7 1007.8 0.0
27/07:00pm 6.6 4.1 4.8 88 0.8 NNE 7 9 4 5 1007.6 1007.7 0.0
27/06:30pm 7.5 4.7 5.1 85 1.1 NNE 9 9 5 5 1007.6 1007.7 0.0
27/06:00pm 7.5 4.2 4.5 81 1.3 NNE 11 13 6 7 1007.4 1007.5 0.0
27/05:30pm 9.9 7.4 4.7 70 2.3 NNE 7 7 4 4 1007.2 1007.2 0.0
27/05:00pm 11.2 8.2 4.0 61 3.2 NNE 9 11 5 6 1007.1 1007.1 0.0
27/04:30pm 12.8 10.0 5.0 59 3.6 NNE 9 11 5 6 1007.0 1007.0 0.0
27/04:00pm 13.3 10.4 4.7 56 4.0 NE 9 13 5 7 1007.0 1007.0 0.0
27/03:30pm 13.6 11.2 4.5 54 4.2 NE 6 11 3 6 1007.0 1007.0 0.0
27/03:00pm 13.2 11.3 5.1 58 3.8 NW 4 7 2 4 1007.0 1007.0 0.0

Other Formats:

Comma delimited format used in spreadsheet applications
http://www.bom.gov.au/fwo/IDV60801/IDV60801.94874.axf

JavaScript Object Notation format (JSON) in row-major order
http://www.bom.gov.au/fwo/IDV60801/IDV60801.94874.json